Time;durP1;ratioP1;P1;durP2;ratioP2;P2;SDS_P1;SDS_P2;PMS_P1;PMS_P2;Temp;Humidity;BMP_temperature;BMP_pressure;BME280_temperature;BME280_humidity;BME280_pressure;Samples;Min_cycle;Max_cycle;Signal;HPM_P1;HPM_P2
2022/12/15 00:38:43;;;;;;;;;;;;;;;-144.99;95.74;52631.53;5009752;28;20024;-71
2022/12/15 00:41:12;;;;;;;;;;;;;;;-144.99;94.86;52647.84;5007554;28;20296;-69
2022/12/15 00:43:38;;;;;;;;;;;;;;;-144.99;94.46;52627.47;5008616;28;19937;-74
2022/12/15 00:48:49;;;;;;;;;;;;;;;-144.99;94.86;52600.97;5018207;28;20495;-69
2022/12/15 00:51:15;;;;;;;;;;;;;;;-144.99;95.24;52694.72;5008763;28;19937;-69
2022/12/15 01:21:08;;;;;;;;;;;;;;;-144.99;97.92;52635.63;5025324;28;19936;-75
2022/12/15 01:23:43;;;;;;;;;;;;;;;-144.99;97.73;52660.09;4951997;28;10000222;-76
2022/12/15 01:26:11;;;;;;;;;;;;;;;-144.99;97.92;52641.72;5024840;28;19991;-76
2022/12/15 01:28:37;;;;;;;;;;;;;;;-144.99;97.96;52627.47;5014052;28;19930;-76
2022/12/15 01:31:10;;;;;;;;;;;;;;;-144.99;98.16;52643.78;5014037;28;20509;-75
2022/12/15 01:33:37;;;;;;;;;;;;;;;-144.99;97.76;52651.94;5007069;28;19929;-75
2022/12/15 01:36:03;;;;;;;;;;;;;;;-144.99;98.02;52627.47;5014395;28;19926;-77
2022/12/15 01:38:30;;;;;;;;;;;;;;;-144.99;98.65;52635.63;5015496;28;19925;-76
2022/12/15 01:40:57;;;;;;;;;;;;;;;-144.99;97.95;52653.97;5016244;28;19926;-76
2022/12/15 01:43:27;;;;;;;;;;;;;;;-144.99;98.01;52651.94;5007387;28;19949;-77
2022/12/15 01:45:55;;;;;;;;;;;;;;;-144.99;97.72;52598.94;5016154;28;19929;-77
2022/12/15 01:48:28;;;;;;;;;;;;;;;-144.99;97.89;52639.69;5004757;28;20066;-77
2022/12/15 01:51:00;;;;;;;;;;;;;;;-144.99;97.79;52639.69;5017789;28;19929;-77
2022/12/15 01:53:27;;;;;;;;;;;;;;;-144.99;97.85;52627.47;5008860;28;19933;-78
2022/12/15 01:55:54;;;;;;;;;;;;;;;-144.99;98.09;52627.47;5013954;28;19933;-77
2022/12/15 01:58:21;;;;;;;;;;;;;;;-144.99;98.40;52627.47;5020242;28;19930;-77
2022/12/15 02:00:49;;;;;;;;;;;;;;;-144.99;98.15;52607.09;5032002;28;19934;-78
2022/12/15 02:03:16;;;;;;;;;;;;;;;-144.99;97.76;52647.84;5038534;28;19948;-78
2022/12/15 02:05:43;;;;;;;;;;;;;;;-144.99;97.32;52619.31;5037707;28;19914;-78
2022/12/15 02:08:10;;;;;;;;;;;;;;;-144.99;97.04;52639.69;5037088;28;19913;-79
2022/12/15 02:10:43;;;;;;;;;;;;;;;-144.99;97.51;52617.28;5036931;28;19940;-79
2022/12/15 02:13:14;;;;;;;;;;;;;;;-144.99;97.51;52643.78;5034526;28;19952;-78
2022/12/15 02:15:43;;;;;;;;;;;;;;;-144.99;97.52;52684.53;5019562;28;19934;-71
2022/12/15 02:18:16;;;;;;;;;;;;;;;-144.99;97.61;52611.16;5012370;28;19933;-72
2022/12/15 02:20:53;;;;;;;;;;;;;;;-144.99;97.49;52660.09;5003479;28;19925;-72
2022/12/15 02:23:38;;;;;;;;;;;;;;;-144.99;97.22;52594.84;5013524;28;19952;-74
2022/12/15 02:26:14;;;;;;;;;;;;;;;-144.99;96.83;52641.72;5008043;28;19963;-73
2022/12/15 02:28:48;;;;;;;;;;;;;;;-144.99;96.77;52651.94;5014679;28;19925;-72
2022/12/15 02:34:05;;;;;;;;;;;;;;;-144.99;96.50;52684.53;5010806;28;19933;-72
2022/12/15 02:36:35;;;;;;;;;;;;;;;-144.99;96.28;52656.00;5015123;28;19941;-73
2022/12/15 02:39:02;;;;;;;;;;;;;;;-144.99;96.08;52645.81;5017714;28;19926;-74
2022/12/15 02:41:32;;;;;;;;;;;;;;;-144.99;95.86;52619.31;5024760;28;19929;-75
2022/12/15 02:43:59;;;;;;;;;;;;;;;-144.99;95.93;52639.69;5031393;28;20013;-74
2022/12/15 02:46:31;;;;;;;;;;;;;;;-144.99;95.85;52629.50;5015091;28;19944;-74
2022/12/15 02:49:03;;;;;;;;;;;;;;;-144.99;95.70;52607.09;5001364;28;19933;-73
2022/12/15 02:51:40;;;;;;;;;;;;;;;-144.99;95.48;52656.00;5000985;28;20027;-73
2022/12/15 02:54:13;;;;;;;;;;;;;;;-144.99;95.68;52631.53;5014010;28;19976;-73
2022/12/15 02:56:44;;;;;;;;;;;;;;;-144.99;95.78;52594.84;5014684;28;19926;-73
2022/12/15 02:59:13;;;;;;;;;;;;;;;-144.99;95.79;52700.84;5009686;28;19932;-73
2022/12/15 03:01:44;;;;;;;;;;;;;;;-144.99;96.57;52631.53;5013602;28;19925;-71
2022/12/15 03:04:12;;;;;;;;;;;;;;;-144.99;96.47;52639.69;5013528;28;19932;-71
2022/12/15 03:06:38;;;;;;;;;;;;;;;-144.99;96.43;52647.84;5013904;28;20464;-72
2022/12/15 03:09:05;;;;;;;;;;;;;;;-144.99;96.32;52621.34;5022761;28;20044;-71
2022/12/15 03:11:32;;;;;;;;;;;;;;;-144.99;96.19;52639.69;5035086;28;20127;-71
2022/12/15 03:13:58;;;;;;;;;;;;;;;-144.99;96.90;52598.94;5018862;28;19971;-71
2022/12/15 03:16:25;;;;;;;;;;;;;;;-144.99;96.87;52647.84;5006014;28;19944;-73
2022/12/15 03:18:53;;;;;;;;;;;;;;;-144.99;97.60;52619.31;5013691;28;19933;-72
2022/12/15 03:21:19;;;;;;;;;;;;;;;-144.99;97.93;52631.53;5024823;28;19936;-72
2022/12/15 03:23:46;;;;;;;;;;;;;;;-144.99;98.35;52627.47;5035495;28;20044;-72
2022/12/15 03:26:12;;;;;;;;;;;;;;;-144.99;98.22;52635.63;5026223;28;19929;-71
2022/12/15 03:28:39;;;;;;;;;;;;;;;-144.99;98.04;52621.34;5014400;28;19980;-69
2022/12/15 03:31:06;;;;;;;;;;;;;;;-144.99;99.17;52619.31;5014261;28;19926;-70
2022/12/15 03:33:33;;;;;;;;;;;;;;;-144.99;98.73;52672.31;5010499;28;19948;-70
2022/12/15 03:36:01;;;;;;;;;;;;;;;-144.99;98.85;52635.63;5013433;28;20011;-70
2022/12/15 03:38:27;;;;;;;;;;;;;;;-144.99;98.98;52645.81;5013397;28;19980;-70
2022/12/15 03:40:54;;;;;;;;;;;;;;;-144.99;98.66;52643.78;5008455;28;19952;-69
2022/12/15 03:43:20;;;;;;;;;;;;;;;-144.99;98.75;52637.66;5011956;28;19976;-69
2022/12/15 03:45:47;;;;;;;;;;;;;;;-144.99;98.42;52660.09;5013405;28;19997;-69
2022/12/15 03:48:14;;;;;;;;;;;;;;;-144.99;99.43;52631.53;5023819;28;19929;-67
2022/12/15 03:50:40;;;;;;;;;;;;;;;-144.99;99.37;52660.09;5033407;28;19932;-66
2022/12/15 03:53:08;;;;;;;;;;;;;;;-144.99;99.74;52696.78;5023817;28;20476;-69
2022/12/15 03:55:35;;;;;;;;;;;;;;;-144.99;99.84;52615.25;5024604;28;19926;-66
2022/12/15 03:58:01;;;;;;;;;;;;;;;-144.99;100.00;52607.09;5024025;28;19979;-66
2022/12/15 04:00:28;;;;;;;;;;;;;;;-144.99;100.00;52641.72;5025199;28;19964;-66
2022/12/15 04:02:55;;;;;;;;;;;;;;;-144.99;100.00;52627.47;5025203;28;20018;-65
2022/12/15 04:05:24;;;;;;;;;;;;;;;-144.99;100.00;52668.22;5024656;28;19936;-64
2022/12/15 04:07:51;;;;;;;;;;;;;;;-144.99;99.84;52627.47;5022813;28;19932;-65
2022/12/15 04:10:19;;;;;;;;;;;;;;;-144.99;100.00;52639.69;5024180;28;19925;-65
2022/12/15 04:12:45;;;;;;;;;;;;;;;-144.99;100.00;52639.69;5022025;28;19925;-65
2022/12/15 04:15:12;;;;;;;;;;;;;;;-144.99;100.00;52611.16;5008459;28;19937;-65
2022/12/15 04:17:39;;;;;;;;;;;;;;;-144.99;100.00;52656.00;5021892;28;19926;-73
2022/12/15 04:20:09;;;;;;;;;;;;;;;-144.99;100.00;52635.63;5007430;28;19925;-70
2022/12/15 04:22:35;;;;;;;;;;;;;;;-144.99;100.00;52615.25;5008858;28;19943;-68
2022/12/15 05:33:29;;;;;;;;;;;;;;;-144.99;100.00;52619.31;5004369;28;19932;-76
2022/12/15 05:35:57;;;;;;;;;;;;;;;-144.99;100.00;52643.78;5006090;28;20052;-70
2022/12/15 05:38:23;;;;;;;;;;;;;;;-144.99;100.00;52625.44;5012291;28;20010;-72
2022/12/15 05:40:50;;;;;;;;;;;;;;;-144.99;100.00;52611.16;5014395;28;20421;-70
2022/12/15 05:43:17;;;;;;;;;;;;;;;-144.99;100.00;52603.00;5031068;23;20100;-66
2022/12/15 05:45:43;;;;;;;;;;;;;;;-144.99;100.00;52607.09;5004044;28;19932;-65
2022/12/15 05:48:10;;;;;;;;;;;;;;;-144.99;100.00;52627.47;4998956;28;19982;-64
2022/12/15 05:50:38;;;;;;;;;;;;;;;-144.99;100.00;52627.47;5011727;28;19933;-65
2022/12/15 05:53:04;;;;;;;;;;;;;;;-144.99;100.00;52637.66;5004504;28;20007;-65
2022/12/15 05:55:31;;;;;;;;;;;;;;;-144.99;100.00;52623.38;5009515;28;19968;-64
2022/12/15 05:57:57;;;;;;;;;;;;;;;-144.99;100.00;52627.47;5009954;28;19930;-65
2022/12/15 06:00:24;;;;;;;;;;;;;;;-144.99;100.00;52633.59;5010692;28;19983;-64
2022/12/15 06:02:51;;;;;;;;;;;;;;;-144.99;100.00;52639.69;5010112;28;19929;-63
2022/12/15 06:05:17;;;;;;;;;;;;;;;-144.99;100.00;52619.31;5011202;28;19949;-64
2022/12/15 06:07:45;;;;;;;;;;;;;;;-144.99;100.00;52598.94;5011788;28;19929;-64
2022/12/15 06:10:12;;;;;;;;;;;;;;;-144.99;100.00;52688.63;5011319;28;19971;-65
2022/12/15 06:12:38;;;;;;;;;;;;;;;-144.99;100.00;52635.63;5009765;28;19980;-64
2022/12/15 06:15:06;;;;;;;;;;;;;;;-144.99;100.00;52607.09;5009532;28;19971;-64
2022/12/15 06:17:32;;;;;;;;;;;;;;;-144.99;100.00;52635.63;5010425;28;19995;-67
2022/12/15 06:19:59;;;;;;;;;;;;;;;-144.99;100.00;52651.94;5003593;28;19925;-64
2022/12/15 06:22:26;;;;;;;;;;;;;;;-144.99;100.00;52635.63;5001180;28;20483;-63
2022/12/15 06:24:54;;;;;;;;;;;;;;;-144.99;100.00;52619.31;5005166;28;20021;-65
2022/12/15 06:27:20;;;;;;;;;;;;;;;-144.99;100.00;52647.84;5009926;28;19925;-65
2022/12/15 06:29:47;;;;;;;;;;;;;;;-144.99;100.00;52607.09;5009992;28;19961;-65
2022/12/15 06:32:13;;;;;;;;;;;;;;;-144.99;100.00;52666.19;5009780;28;19995;-65
2022/12/15 06:34:40;;;;;;;;;;;;;;;-144.99;100.00;52656.00;5010288;28;19929;-65
2022/12/15 06:37:06;;;;;;;;;;;;;;;-144.99;100.00;52643.78;5010150;28;19926;-65
2022/12/15 06:39:33;;;;;;;;;;;;;;;-144.99;100.00;52643.78;5009838;28;19976;-66
2022/12/15 06:42:01;;;;;;;;;;;;;;;-144.99;100.00;52643.78;5009424;28;20498;-65
2022/12/15 06:44:27;;;;;;;;;;;;;;;-144.99;100.00;52623.38;5009117;28;20306;-65
2022/12/15 06:46:54;;;;;;;;;;;;;;;-144.99;100.00;52639.69;5009854;28;19988;-64
2022/12/15 06:49:20;;;;;;;;;;;;;;;-144.99;100.00;52631.53;5009745;28;19964;-64
2022/12/15 06:51:48;;;;;;;;;;;;;;;-144.99;100.00;52637.66;5010072;28;19929;-65
2022/12/15 06:54:15;;;;;;;;;;;;;;;-144.99;100.00;52603.00;5007089;28;20045;-65
2022/12/15 06:56:42;;;;;;;;;;;;;;;-144.99;100.00;52617.28;5013229;28;20371;-66
2022/12/15 06:59:11;;;;;;;;;;;;;;;-144.99;100.00;52635.63;5013921;28;19925;-65
2022/12/15 07:01:37;;;;;;;;;;;;;;;-144.99;100.00;52664.16;5011242;28;19925;-66
2022/12/15 07:04:04;;;;;;;;;;;;;;;-144.99;100.00;52619.31;5011157;28;20026;-65
2022/12/15 07:06:35;;;;;;;;;;;;;;;-144.99;100.00;52615.25;5011883;28;19926;-65
2022/12/15 07:09:01;;;;;;;;;;;;;;;-144.99;100.00;52635.63;5011757;28;19926;-65
2022/12/15 07:11:28;;;;;;;;;;;;;;;-144.99;100.00;52603.00;5010637;28;19933;-67
2022/12/15 07:13:55;;;;;;;;;;;;;;;-144.99;100.00;52631.53;5009667;28;19930;-65
2022/12/15 07:16:23;;;;;;;;;;;;;;;-144.99;100.00;52639.69;5010344;28;19948;-64
2022/12/15 07:18:50;;;;;;;;;;;;;;;-144.99;100.00;52619.31;5008905;28;19925;-65
2022/12/15 07:21:16;;;;;;;;;;;;;;;-144.99;100.00;52627.47;5007392;28;20426;-64
2022/12/15 07:23:43;;;;;;;;;;;;;;;-144.99;100.00;52668.22;4997234;28;19929;-64
2022/12/15 07:26:10;;;;;;;;;;;;;;;-144.99;100.00;52647.84;5009637;28;19925;-64
2022/12/15 07:28:37;;;;;;;;;;;;;;;-144.99;100.00;52613.19;5009137;28;20016;-66
2022/12/15 07:31:04;;;;;;;;;;;;;;;-144.99;100.00;52617.28;5008892;28;19929;-65
2022/12/15 07:33:33;;;;;;;;;;;;;;;-144.99;100.00;52617.28;5011860;28;20329;-65
2022/12/15 07:36:00;;;;;;;;;;;;;;;-144.99;100.00;52566.31;5008811;28;20019;-66
2022/12/15 07:38:27;;;;;;;;;;;;;;;-144.99;100.00;52631.53;5009487;28;19979;-67
2022/12/15 07:40:54;;;;;;;;;;;;;;;-144.99;100.00;52623.38;5010094;28;20404;-65
2022/12/15 07:43:20;;;;;;;;;;;;;;;-144.99;100.00;52631.53;5011338;28;20014;-66
2022/12/15 07:45:51;;;;;;;;;;;;;;;-144.99;100.00;52615.25;5013184;28;19933;-66
2022/12/15 07:48:18;;;;;;;;;;;;;;;-144.99;100.00;52613.19;5012070;28;19980;-66
2022/12/15 07:50:46;;;;;;;;;;;;;;;-144.99;100.00;52619.31;5010241;28;19972;-66
2022/12/15 07:53:13;;;;;;;;;;;;;;;-144.99;100.00;52621.34;5006610;28;19930;-66
2022/12/15 07:55:39;;;;;;;;;;;;;;;-144.99;100.00;52594.84;5012267;28;19953;-68
2022/12/15 07:58:06;;;;;;;;;;;;;;;-144.99;100.00;52566.31;5012270;28;19929;-66
2022/12/15 08:00:32;;;;;;;;;;;;;;;-144.99;100.00;52615.25;5012248;28;19988;-66
2022/12/15 08:03:01;;;;;;;;;;;;;;;-144.99;100.00;52639.69;5009777;28;20303;-67
2022/12/15 08:05:28;;;;;;;;;;;;;;;-144.99;100.00;52631.53;5010806;28;19929;-65
2022/12/15 08:07:56;;;;;;;;;;;;;;;-144.99;100.00;52651.94;5009110;28;20050;-66
2022/12/15 08:10:23;;;;;;;;;;;;;;;-144.99;100.00;52680.47;5008690;28;19979;-65
2022/12/15 08:12:49;;;;;;;;;;;;;;;-144.99;100.00;52623.38;5007692;28;19925;-67
2022/12/15 08:15:16;;;;;;;;;;;;;;;-144.99;100.00;52600.97;5007652;28;20001;-67
2022/12/15 08:17:45;;;;;;;;;;;;;;;-144.99;100.00;52594.84;5008036;28;19979;-67
2022/12/15 08:20:13;;;;;;;;;;;;;;;-144.99;100.00;52598.94;5007540;28;20015;-67
2022/12/15 08:22:40;;;;;;;;;;;;;;;-144.99;100.00;52615.25;4996590;28;20434;-67
2022/12/15 08:25:08;;;;;;;;;;;;;;;-144.99;100.00;52607.09;5004605;28;20465;-67
2022/12/15 08:27:35;;;;;;;;;;;;;;;-144.99;100.00;52635.63;5007525;28;19975;-68
2022/12/15 08:30:02;;;;;;;;;;;;;;;-144.99;100.00;52590.78;5007918;28;19965;-67
2022/12/15 08:32:28;;;;;;;;;;;;;;;-144.99;100.00;52598.94;5008610;28;19952;-67
2022/12/15 08:34:55;;;;;;;;;;;;;;;-144.99;100.00;52611.16;5010622;28;20405;-67
2022/12/15 08:37:21;;;;;;;;;;;;;;;-144.99;100.00;52586.69;5008116;28;19933;-67
2022/12/15 08:39:48;;;;;;;;;;;;;;;-144.99;100.00;52607.09;5007823;28;19952;-66
2022/12/15 08:42:16;;;;;;;;;;;;;;;-144.99;100.00;52660.09;5006841;28;19961;-70
2022/12/15 08:44:42;;;;;;;;;;;;;;;-144.99;100.00;52598.94;5007254;28;19937;-67
2022/12/15 08:47:09;;;;;;;;;;;;;;;-144.99;100.00;52607.09;5007823;28;19926;-67
2022/12/15 08:49:35;;;;;;;;;;;;;;;-144.99;100.00;52611.16;5007710;28;20406;-67
2022/12/15 08:52:02;;;;;;;;;;;;;;;-144.99;100.00;52598.94;5005930;28;19969;-67
2022/12/15 08:54:28;;;;;;;;;;;;;;;-144.99;100.00;52590.78;5004856;28;20366;-67
2022/12/15 08:56:55;;;;;;;;;;;;;;;-144.99;100.00;52623.38;5007683;28;19968;-67
2022/12/15 08:59:23;;;;;;;;;;;;;;;-144.99;100.00;52605.03;5007181;28;19955;-67
2022/12/15 09:01:49;;;;;;;;;;;;;;;-144.99;100.00;52615.25;5008990;28;19929;-67
2022/12/15 09:04:16;;;;;;;;;;;;;;;-144.99;100.00;52590.78;5007465;28;20016;-67
2022/12/15 09:06:43;;;;;;;;;;;;;;;-144.99;100.00;52574.47;5007552;28;19925;-67
2022/12/15 09:09:11;;;;;;;;;;;;;;;-144.99;100.00;52615.25;5007416;28;20007;-69
2022/12/15 09:11:38;;;;;;;;;;;;;;;-144.99;100.00;52594.84;5007798;28;19926;-68
2022/12/15 09:14:04;;;;;;;;;;;;;;;-144.99;100.00;52566.31;5009180;28;19972;-67
2022/12/15 09:16:32;;;;;;;;;;;;;;;-144.99;100.00;52623.38;5014716;28;19980;-67
2022/12/15 09:18:59;;;;;;;;;;;;;;;-144.99;100.00;52594.84;5011216;28;19926;-67
2022/12/15 09:21:28;;;;;;;;;;;;;;;-144.99;100.00;52586.69;5002875;28;19929;-67
2022/12/15 09:23:59;;;;;;;;;;;;;;;-144.99;100.00;52621.34;4997861;28;19956;-67
2022/12/15 09:26:25;;;;;;;;;;;;;;;-144.99;100.00;52570.38;5011160;28;19929;-67
2022/12/15 09:28:53;;;;;;;;;;;;;;;-144.99;100.00;52607.09;5010373;28;19937;-68
2022/12/15 09:31:21;;;;;;;;;;;;;;;-144.99;100.00;52621.34;5010826;28;20294;-67
2022/12/15 09:33:49;;;;;;;;;;;;;;;-144.99;100.00;52570.38;5013693;28;20410;-67
2022/12/15 09:36:15;;;;;;;;;;;;;;;-144.99;100.00;52594.84;5010735;28;20016;-67
2022/12/15 09:38:42;;;;;;;;;;;;;;;-144.99;100.00;52586.69;5010512;28;20015;-68
2022/12/15 09:41:16;;;;;;;;;;;;;;;-144.99;100.00;52572.44;5010347;28;20390;-67
2022/12/15 09:43:46;;;;;;;;;;;;;;;-144.99;100.00;52596.88;5009730;28;19925;-68
2022/12/15 09:46:18;;;;;;;;;;;;;;;-144.99;100.00;52623.38;5010833;28;20342;-67
2022/12/15 09:48:45;;;;;;;;;;;;;;;-144.99;100.00;52631.53;5010606;28;20424;-68
2022/12/15 09:51:16;;;;;;;;;;;;;;;-144.99;100.00;52615.25;5010612;28;20485;-67
2022/12/15 09:53:43;;;;;;;;;;;;;;;-144.99;100.00;52607.09;5009609;28;19929;-67
2022/12/15 09:56:12;;;;;;;;;;;;;;;-144.99;100.00;52586.69;5010603;28;19926;-67
2022/12/15 09:58:44;;;;;;;;;;;;;;;-144.99;100.00;52594.84;5010694;28;19961;-71
2022/12/15 10:01:15;;;;;;;;;;;;;;;-144.99;100.00;52627.47;5012594;28;20007;-67
2022/12/15 10:03:48;;;;;;;;;;;;;;;-144.99;100.00;52578.53;5013269;28;19983;-68
2022/12/15 10:06:18;;;;;;;;;;;;;;;-144.99;100.00;52582.63;5010480;28;19970;-68
2022/12/15 10:08:45;;;;;;;;;;;;;;;-144.99;100.00;52603.00;5009716;28;20025;-68
2022/12/15 10:11:16;;;;;;;;;;;;;;;-144.99;100.00;52611.16;5010117;28;20386;-68
2022/12/15 10:13:47;;;;;;;;;;;;;;;-144.99;100.00;52594.84;5009959;28;19965;-68
2022/12/15 10:16:18;;;;;;;;;;;;;;;-144.99;100.00;52619.31;5010666;28;19971;-68
2022/12/15 10:18:50;;;;;;;;;;;;;;;-144.99;100.00;52586.69;5010754;28;19965;-68
2022/12/15 10:21:18;;;;;;;;;;;;;;;-144.99;100.00;52533.69;5008053;28;19979;-68
2022/12/15 10:23:45;;;;;;;;;;;;;;;-144.99;100.00;52562.25;4998030;28;20383;-68
2022/12/15 10:26:18;;;;;;;;;;;;;;;-144.99;100.00;52517.41;5010120;28;20011;-68
2022/12/15 10:28:52;;;;;;;;;;;;;;;-144.99;100.00;52556.13;5010522;28;19975;-69
2022/12/15 10:31:23;;;;;;;;;;;;;;;-144.99;98.13;52554.09;5010830;28;19929;-69
2022/12/15 10:33:54;;;;;;;;;;;;;;;-144.99;95.60;52590.78;5014282;28;19930;-69
2022/12/15 10:36:22;;;;;;;;;;;;;;;-144.99;94.85;52525.56;5010797;28;20409;-69
2022/12/15 10:38:48;;;;;;;;;;;;;;;-144.99;93.97;52574.47;5010580;28;20375;-69
2022/12/15 10:41:16;;;;;;;;;;;;;;;-144.99;94.43;52570.38;5002734;28;20264;-67
2022/12/15 10:43:43;;;;;;;;;;;;;;;-144.99;96.16;52590.78;5009637;28;19991;-67
2022/12/15 10:46:14;;;;;;;;;;;;;;;-144.99;97.17;52541.84;5011494;28;20366;-67
2022/12/15 10:48:40;;;;;;;;;;;;;;;-144.99;97.04;52541.84;5015135;28;19983;-68
2022/12/15 10:51:27;;;;;;;;;;;;;;;-144.99;96.59;52533.69;5011381;28;20428;-68
2022/12/15 10:54:03;;;;;;;;;;;;;;;-144.99;91.37;52448.09;5007047;28;19929;-67
2022/12/15 10:56:30;;;;;;;;;;;;;;;-144.99;81.24;52456.25;5011227;28;19926;-68
2022/12/15 10:58:58;;;;;;;;;;;;;;;-144.99;73.63;52472.56;5010264;28;19980;-68
2022/12/15 11:01:25;;;;;;;;;;;;;;;-144.99;71.66;52582.63;5010553;28;19934;-70
2022/12/15 11:03:52;;;;;;;;;;;;;;;-144.99;72.38;52570.38;5009873;28;19929;-67
2022/12/15 11:06:21;;;;;;;;;;;;;;;-144.99;75.00;52598.94;5010685;28;20013;-68
2022/12/15 11:08:50;;;;;;;;;;;;;;;-144.99;77.94;52562.25;5009907;28;19936;-68
2022/12/15 11:14:13;;;;;;;;;;;;;;;-144.99;83.89;52525.56;5009805;28;19941;-68
2022/12/15 11:16:44;;;;;;;;;;;;;;;-144.99;83.89;52537.78;5009934;28;19932;-69
2022/12/15 11:19:13;;;;;;;;;;;;;;;-144.99;78.78;52505.16;5010005;28;20016;-69
2022/12/15 11:21:44;;;;;;;;;;;;;;;-144.99;79.52;52393.06;5005155;28;19930;-68
2022/12/15 11:24:14;;;;;;;;;;;;;;;-144.99;71.28;52427.72;5003281;28;20448;-68
2022/12/15 11:26:48;;;;;;;;;;;;;;;-144.99;62.31;52497.00;5002640;28;20019;-68
2022/12/15 11:29:23;;;;;;;;;;;;;;;-144.99;59.64;52480.72;4999912;28;20161;-68
2022/12/15 11:31:51;;;;;;;;;;;;;;;-144.99;61.35;52513.31;5008483;28;19933;-68
2022/12/15 11:34:20;;;;;;;;;;;;;;;-144.99;62.99;52525.56;5009982;28;19933;-68
2022/12/15 11:36:57;;;;;;;;;;;;;;;-144.99;65.27;52576.50;5003171;28;19957;-68
2022/12/15 11:39:34;;;;;;;;;;;;;;;-144.99;68.54;52570.38;4999707;28;19991;-70
2022/12/15 11:42:04;;;;;;;;;;;;;;;-144.99;71.53;52586.69;5004688;28;19979;-68
2022/12/15 11:44:38;;;;;;;;;;;;;;;-144.99;74.57;52615.25;5021024;23;19960;-69
2022/12/15 11:47:11;;;;;;;;;;;;;;;-144.99;76.27;52590.78;5014601;28;19983;-69
2022/12/15 11:49:46;;;;;;;;;;;;;;;-144.99;78.59;52586.69;5014355;28;19964;-69
2022/12/15 11:52:17;;;;;;;;;;;;;;;-144.99;80.17;52547.97;5011431;28;19956;-70
2022/12/15 11:54:47;;;;;;;;;;;;;;;-144.99;81.41;52423.63;5012780;28;20033;-71
2022/12/15 11:57:23;;;;;;;;;;;;;;;-144.99;78.33;52550.00;5010665;28;19960;-69
2022/12/15 11:59:57;;;;;;;;;;;;;;;-144.99;74.30;52578.53;5007639;28;20440;-68
2022/12/15 12:02:45;;;;;;;;;;;;;;;-144.99;74.05;52550.00;5015911;28;19940;-69
2022/12/15 12:05:24;;;;;;;;;;;;;;;-144.99;74.94;52560.19;5007161;28;20399;-70
2022/12/15 12:07:53;;;;;;;;;;;;;;;-144.99;76.57;52529.63;5003760;28;20468;-69
2022/12/15 12:10:26;;;;;;;;;;;;;;;-144.99;79.41;52586.69;5013439;28;20437;-69
2022/12/15 12:12:57;;;;;;;;;;;;;;;-144.99;81.53;52560.19;5017108;28;19991;-69
2022/12/15 12:15:27;;;;;;;;;;;;;;;-144.99;82.79;52596.88;5014409;28;19972;-70
2022/12/15 12:17:59;;;;;;;;;;;;;;;-144.99;83.25;52521.47;5012830;28;19929;-70
2022/12/15 12:20:27;;;;;;;;;;;;;;;-144.99;83.59;52582.63;5013524;28;19925;-70
2022/12/15 12:22:58;;;;;;;;;;;;;;;-144.99;84.34;52554.09;5003777;28;19976;-69
2022/12/15 12:25:26;;;;;;;;;;;;;;;-144.99;84.35;52586.69;5007403;28;19952;-70
2022/12/15 12:27:55;;;;;;;;;;;;;;;-144.99;83.91;52541.84;5008890;28;20012;-69
2022/12/15 12:30:22;;;;;;;;;;;;;;;-144.99;82.44;52550.00;5009014;28;19972;-70
2022/12/15 12:32:53;;;;;;;;;;;;;;;-144.99;82.05;52558.16;5005850;28;19929;-69
2022/12/15 12:35:23;;;;;;;;;;;;;;;-144.99;81.35;52586.69;5010345;28;19956;-68
2022/12/15 12:37:51;;;;;;;;;;;;;;;-144.99;80.98;52590.78;5009690;28;19968;-69
2022/12/15 12:40:20;;;;;;;;;;;;;;;-144.99;80.90;52525.56;5005739;28;20032;-69
2022/12/15 12:42:51;;;;;;;;;;;;;;;-144.99;81.31;52570.38;4990982;28;19960;-70
2022/12/15 12:45:19;;;;;;;;;;;;;;;-144.99;81.44;52603.00;4997521;28;20022;-69
2022/12/15 12:47:49;;;;;;;;;;;;;;;-144.99;82.20;52570.38;5009777;28;19925;-69
2022/12/15 12:50:18;;;;;;;;;;;;;;;-144.99;82.03;52554.09;5014352;28;20019;-69
2022/12/15 12:52:48;;;;;;;;;;;;;;;-144.99;82.30;52580.59;5010478;28;20025;-70
2022/12/15 12:55:29;;;;;;;;;;;;;;;-144.99;82.88;52550.00;5016859;28;20403;-69
2022/12/15 12:57:57;;;;;;;;;;;;;;;-144.99;83.67;52605.03;5015353;28;19988;-68
2022/12/15 13:00:25;;;;;;;;;;;;;;;-144.99;84.47;52562.25;5015633;28;19956;-68
2022/12/15 13:02:56;;;;;;;;;;;;;;;-144.99;84.86;52562.25;5013233;28;20010;-69
2022/12/15 13:05:27;;;;;;;;;;;;;;;-144.99;85.45;52603.00;5014347;28;20279;-69
2022/12/15 13:07:55;;;;;;;;;;;;;;;-144.99;85.77;52603.00;5003969;28;20032;-69
2022/12/15 13:10:22;;;;;;;;;;;;;;;-144.99;85.82;52619.31;5015574;28;19925;-70
2022/12/15 13:12:51;;;;;;;;;;;;;;;-144.99;86.09;52619.31;5016129;28;19926;-70
2022/12/15 13:15:25;;;;;;;;;;;;;;;-144.99;86.05;52590.78;5014218;28;19932;-70
2022/12/15 13:17:54;;;;;;;;;;;;;;;-144.99;86.23;52611.16;5011894;28;20373;-69
2022/12/15 13:20:25;;;;;;;;;;;;;;;-144.99;86.76;52611.16;5015058;28;19989;-71
2022/12/15 13:22:52;;;;;;;;;;;;;;;-144.99;86.73;52590.78;5016030;28;20500;-70
2022/12/15 13:25:43;;;;;;;;;;;;;;;-144.99;86.95;52586.69;5016628;28;19964;-70
2022/12/15 13:28:17;;;;;;;;;;;;;;;-144.99;87.33;52576.50;5014602;28;19936;-69
2022/12/15 13:30:58;;;;;;;;;;;;;;;-144.99;87.27;52631.53;5010888;28;20408;-69
2022/12/15 13:33:27;;;;;;;;;;;;;;;-144.99;87.63;52562.25;5015654;28;19925;-70
2022/12/15 13:35:53;;;;;;;;;;;;;;;-144.99;87.71;52590.78;5017160;28;19982;-70
2022/12/15 13:38:20;;;;;;;;;;;;;;;-144.99;87.94;52558.16;5014809;28;19972;-71
2022/12/15 13:40:52;;;;;;;;;;;;;;;-144.99;88.03;52574.47;5013856;28;19926;-71
2022/12/15 13:43:36;;;;;;;;;;;;;;;-144.99;88.20;52592.81;5016185;28;19932;-69
2022/12/15 13:46:10;;;;;;;;;;;;;;;-144.99;88.36;52541.84;5016820;28;19926;-69
2022/12/15 13:48:40;;;;;;;;;;;;;;;-144.99;88.98;52566.31;5015616;28;19933;-69
2022/12/15 13:51:18;;;;;;;;;;;;;;;-144.99;89.04;52578.53;5016245;28;19988;-69
2022/12/15 13:53:46;;;;;;;;;;;;;;;-144.99;88.90;52539.81;5011020;28;19962;-69
2022/12/15 13:56:21;;;;;;;;;;;;;;;-144.99;89.13;52531.66;5016722;28;19925;-69
2022/12/15 13:58:53;;;;;;;;;;;;;;;-144.99;88.87;52562.25;5014138;28;19930;-69
2022/12/15 14:01:22;;;;;;;;;;;;;;;-144.99;88.65;52609.13;5008613;28;19933;-69
2022/12/15 14:04:06;;;;;;;;;;;;;;;-144.99;88.94;52533.69;5013072;28;20341;-68
2022/12/15 14:06:38;;;;;;;;;;;;;;;-144.99;88.93;52586.69;5016693;28;19926;-69
2022/12/15 14:09:06;;;;;;;;;;;;;;;-144.99;89.34;52586.69;5015985;28;19959;-69
2022/12/15 14:11:35;;;;;;;;;;;;;;;-144.99;89.94;52590.78;5011935;28;19929;-70
2022/12/15 14:14:02;;;;;;;;;;;;;;;-144.99;90.09;52570.38;5012529;28;19976;-69
2022/12/15 14:16:31;;;;;;;;;;;;;;;-144.99;89.71;52590.78;5010715;28;19936;-69
2022/12/15 14:19:13;;;;;;;;;;;;;;;-144.99;89.64;52594.84;5010930;28;19945;-70
2022/12/15 14:21:39;;;;;;;;;;;;;;;-144.99;89.67;52631.53;4999183;28;19956;-69
2022/12/15 14:24:16;;;;;;;;;;;;;;;-144.99;89.92;52558.16;4999746;28;19974;-71
2022/12/15 14:26:42;;;;;;;;;;;;;;;-144.99;90.02;52576.50;5013476;28;19971;-71
2022/12/15 14:29:10;;;;;;;;;;;;;;;-144.99;90.31;52566.31;5004583;28;19937;-70
2022/12/15 14:31:39;;;;;;;;;;;;;;;-144.99;90.32;52582.63;5012124;28;19964;-71
2022/12/15 14:34:07;;;;;;;;;;;;;;;-144.99;90.24;52603.00;5012562;28;19932;-71
2022/12/15 14:36:36;;;;;;;;;;;;;;;-144.99;90.49;52582.63;5012658;28;20235;-71
2022/12/15 14:39:04;;;;;;;;;;;;;;;-144.99;90.56;52578.53;5010377;28;20117;-71
2022/12/15 14:41:33;;;;;;;;;;;;;;;-144.99;90.26;52554.09;5006441;28;19940;-70
2022/12/15 14:44:00;;;;;;;;;;;;;;;-144.99;90.48;52521.47;5001754;28;20010;-72
2022/12/15 14:46:28;;;;;;;;;;;;;;;-144.99;90.62;52590.78;5012625;28;19926;-70
2022/12/15 14:48:56;;;;;;;;;;;;;;;-144.99;90.58;52574.47;5010709;28;20023;-70
2022/12/15 14:51:24;;;;;;;;;;;;;;;-144.99;90.66;52545.94;5012100;28;20483;-70
2022/12/15 14:53:52;;;;;;;;;;;;;;;-144.99;90.75;52598.94;4995487;28;19929;-70